Time;durP1;ratioP1;P1;durP2;ratioP2;P2;SDS_P1;SDS_P2;PMS_P1;PMS_P2;Temp;Humidity;BMP_temperature;BMP_pressure;BME280_temperature;BME280_humidity;BME280_pressure;Samples;Min_cycle;Max_cycle;Signal;HPM_P1;HPM_P2
2022/02/10 00:06:39;;;;;;;0.75;0.75;;;4.30;99.90;;;;;;5033458;28;20066;-76
2022/02/10 00:35:51;;;;;;;0.55;0.55;;;4.90;99.90;;;;;;5032351;28;20099;-70
2022/02/10 00:38:19;;;;;;;0.50;0.50;;;4.90;99.90;;;;;;5031923;28;20025;-76
2022/02/10 00:40:45;;;;;;;8.02;2.63;;;5.00;99.90;;;;;;5033031;28;20025;-77
2022/02/10 00:43:10;;;;;;;0.50;0.50;;;5.00;99.90;;;;;;5032813;28;20117;-77
2022/02/10 00:45:36;;;;;;;1.35;1.25;;;5.00;99.90;;;;;;5032673;28;20026;-70
2022/02/10 00:48:08;;;;;;;1.75;1.10;;;5.10;99.90;;;;;;5032633;28;20029;-70
2022/02/10 00:50:35;;;;;;;0.98;0.93;;;5.10;99.90;;;;;;5031267;28;20025;-77
2022/02/10 00:53:16;;;;;;;1.58;1.38;;;5.20;99.90;;;;;;5032298;28;20061;-70
2022/02/10 00:55:44;;;;;;;1.42;1.25;;;5.30;99.90;;;;;;5036547;28;20037;-70
2022/02/10 00:58:19;;;;;;;0.45;0.45;;;5.30;99.90;;;;;;5032687;28;20025;-70
2022/02/10 01:13:58;;;;;;;0.32;0.32;;;5.60;99.90;;;;;;5031078;28;20034;-70
2022/02/10 01:30:11;;;;;;;0.30;0.30;;;5.60;99.90;;;;;;5032482;28;20033;-70
2022/02/10 01:32:38;;;;;;;0.38;0.38;;;5.70;99.90;;;;;;5032020;28;20033;-70
2022/02/10 01:35:08;;;;;;;1.48;1.38;;;5.90;99.90;;;;;;5030876;28;20045;-70
2022/02/10 01:37:35;;;;;;;0.20;0.20;;;6.00;99.90;;;;;;5031986;28;20416;-77
2022/02/10 01:40:10;;;;;;;20.77;0.82;;;6.10;99.90;;;;;;5032401;28;20528;-70
2022/02/10 02:04:18;;;;;;;0.22;0.22;;;6.30;99.90;;;;;;5035647;28;20052;-70
2022/02/10 02:06:46;;;;;;;0.00;0.00;;;6.40;99.90;;;;;;5034644;28;20025;-70
2022/02/10 02:09:15;;;;;;;0.45;0.45;;;6.40;99.90;;;;;;5034861;28;20025;-70
2022/02/10 02:11:43;;;;;;;0.20;0.20;;;6.50;99.90;;;;;;5035482;28;20399;-77
2022/02/10 02:14:16;;;;;;;2.97;1.67;;;6.50;99.90;;;;;;5034190;28;20061;-76
2022/02/10 02:16:50;;;;;;;0.88;0.70;;;6.50;99.90;;;;;;5035116;28;20035;-70
2022/02/10 02:19:16;;;;;;;3.03;1.30;;;6.40;99.90;;;;;;5035392;28;20487;-77
2022/02/10 02:21:42;;;;;;;0.68;0.30;;;6.40;99.90;;;;;;5035596;28;20056;-70
2022/02/10 02:24:09;;;;;;;0.73;0.73;;;6.40;99.90;;;;;;5034921;28;20030;-76
2022/02/10 02:26:35;;;;;;;1.98;1.00;;;6.40;99.90;;;;;;5035003;28;20049;-71
2022/02/10 02:29:05;;;;;;;1.23;1.10;;;6.40;99.90;;;;;;5034238;28;20068;-71
2022/02/10 02:31:39;;;;;;;0.20;0.20;;;6.50;99.90;;;;;;5034390;28;20392;-70
2022/02/10 02:34:50;;;;;;;2.75;0.77;;;6.50;99.90;;;;;;5034360;28;20093;-70
2022/02/10 03:08:57;;;;;;;1.30;1.17;;;6.40;99.90;;;;;;5033910;28;20033;-77
2022/02/10 03:11:23;;;;;;;0.28;0.25;;;6.30;99.90;;;;;;5034630;28;20045;-71
2022/02/10 03:13:58;;;;;;;0.93;0.88;;;6.40;99.90;;;;;;5034353;28;20052;-76
2022/02/10 04:00:32;;;;;;;0.25;0.22;;;5.80;99.90;;;;;;5033506;28;20052;-71
2022/02/10 04:16:47;;;;;;;0.00;0.00;;;5.50;99.90;;;;;;5011107;28;20040;-71
2022/02/10 04:19:35;;;;;;;0.93;0.88;;;5.40;99.90;;;;;;5011093;28;20072;-76
2022/02/10 04:22:08;;;;;;;0.30;0.30;;;5.50;99.90;;;;;;5010485;28;20532;-70
2022/02/10 04:24:56;;;;;;;0.13;0.13;;;5.50;99.90;;;;;;5009923;28;20029;-72
2022/02/10 05:05:11;;;;;;;0.75;0.75;;;5.70;99.90;;;;;;5032065;28;20566;-77
2022/02/10 05:32:03;;;;;;;0.60;0.43;;;6.00;99.90;;;;;;5036278;28;20036;-77
2022/02/10 05:34:28;;;;;;;0.85;0.85;;;6.10;99.90;;;;;;5035164;28;20034;-77
2022/02/10 05:36:54;;;;;;;1.33;1.23;;;6.10;99.90;;;;;;5035714;28;20389;-71
2022/02/10 05:39:24;;;;;;;1.15;1.15;;;6.20;99.90;;;;;;5038872;28;20512;-71
2022/02/10 05:45:18;;;;;;;0.50;0.47;;;6.10;99.90;;;;;;5035978;28;20036;-71
2022/02/10 05:50:47;;;;;;;0.40;0.40;;;6.10;99.90;;;;;;5035664;28;20040;-77
2022/02/10 05:58:12;;;;;;;0.20;0.20;;;6.10;99.90;;;;;;5035312;28;20052;-71
2022/02/10 06:55:21;;;;;;;0.25;0.25;;;6.30;99.90;;;;;;5033751;28;20477;-71
2022/02/10 06:58:16;;;;;;;2.65;0.50;;;6.30;99.90;;;;;;5033790;28;20067;-77
2022/02/10 07:02:50;;;;;;;0.80;0.43;;;6.30;99.90;;;;;;5033484;28;20037;-71
2022/02/10 07:03:57;;;;;;;0.15;0.15;;;6.30;99.90;;;;;;5013149;28;20034;-77
2022/02/10 07:55:36;;;;;;;0.40;0.40;;;6.70;99.90;;;;;;5024623;28;20029;-78
2022/02/10 07:58:29;;;;;;;0.82;0.82;;;6.80;99.90;;;;;;5028250;28;20136;-79
2022/02/10 08:56:11;;;;;;;0.32;0.30;;;7.40;99.90;;;;;;5044376;28;20021;-80
2022/02/10 09:12:13;;;;;;;0.63;0.63;;;7.70;99.90;;;;;;5029122;28;20045;-71
2022/02/10 09:18:13;;;;;;;0.63;0.63;;;7.90;99.90;;;;;;5030985;28;20126;-78
2022/02/10 10:02:57;;;;;;;0.52;0.52;;;9.10;99.90;;;;;;5031093;28;20116;-72
2022/02/10 10:54:53;;;;;;;0.95;0.90;;;10.50;99.90;;;;;;5036118;28;20061;-71
2022/02/10 10:57:28;;;;;;;1.15;0.90;;;10.40;99.90;;;;;;5040379;28;20068;-71
2022/02/10 14:13:20;;;;;;;0.00;0.00;;;11.70;99.90;;;;;;5032882;28;20095;-74
2022/02/10 14:28:13;;;;;;;0.10;0.10;;;11.70;99.90;;;;;;5032779;28;20032;-76
2022/02/10 14:30:39;;;;;;;0.65;0.55;;;11.60;99.90;;;;;;5031738;28;20396;-76
2022/02/10 14:33:05;;;;;;;0.00;0.00;;;11.60;99.90;;;;;;5046562;28;20037;-70
2022/02/10 14:35:38;;;;;;;0.10;0.10;;;11.80;99.90;;;;;;5050616;28;20025;-70
2022/02/10 15:20:42;;;;;;;18.88;0.63;;;11.30;99.90;;;;;;5026181;28;20082;-72
2022/02/10 16:18:02;;;;;;;0.08;0.08;;;11.50;99.90;;;;;;5012003;28;20053;-76
2022/02/10 16:20:30;;;;;;;0.22;0.22;;;11.50;99.90;;;;;;5027492;28;20195;-72
2022/02/10 16:23:08;;;;;;;0.17;0.17;;;11.50;99.90;;;;;;5050512;28;20079;-73
2022/02/10 16:25:39;;;;;;;0.10;0.10;;;11.40;99.90;;;;;;5037534;28;21288;-79
2022/02/10 16:28:26;;;;;;;0.20;0.20;;;11.40;99.90;;;;;;5033607;28;20033;-78
2022/02/10 16:30:53;;;;;;;19.95;0.45;;;11.40;99.90;;;;;;5043694;28;20037;-72
2022/02/10 16:33:19;;;;;;;0.47;0.47;;;11.40;99.90;;;;;;5035152;28;20030;-78
2022/02/10 16:35:45;;;;;;;0.40;0.20;;;11.40;99.90;;;;;;5027355;28;20035;-78
2022/02/10 16:38:11;;;;;;;0.00;0.00;;;11.40;99.90;;;;;;5033477;28;20038;-72
2022/02/10 16:40:39;;;;;;;1.65;1.40;;;11.30;99.90;;;;;;5036175;28;20037;-77
2022/02/10 16:43:06;;;;;;;1.13;0.47;;;11.20;99.90;;;;;;5054002;28;20044;-78
2022/02/10 16:45:32;;;;;;;0.20;0.20;;;11.10;99.90;;;;;;5033721;28;20087;-72
2022/02/10 16:47:58;;;;;;;8.07;1.92;;;11.10;99.90;;;;;;5034426;28;20022;-72
2022/02/10 16:50:24;;;;;;;0.20;0.20;;;11.00;99.90;;;;;;5051020;28;20033;-73
2022/02/10 16:52:58;;;;;;;0.30;0.30;;;11.00;99.90;;;;;;5054639;28;20025;-73
2022/02/10 16:56:02;;;;;;;2.50;1.25;;;10.90;99.90;;;;;;5054917;28;20435;-72
2022/02/10 17:14:32;;;;;;;0.17;0.17;;;10.70;99.90;;;;;;5031923;28;20115;-72
2022/02/10 17:53:39;;;;;;;0.00;0.00;;;10.00;99.90;;;;;;5033336;28;20027;-71
2022/02/10 17:56:06;;;;;;;0.30;0.28;;;10.00;99.90;;;;;;5034028;28;20112;-78
2022/02/10 17:58:32;;;;;;;0.50;0.45;;;9.90;99.90;;;;;;5034238;28;20022;-78
2022/02/10 18:00:59;;;;;;;0.08;0.08;;;9.90;99.90;;;;;;5033888;28;20033;-72
2022/02/10 18:03:26;;;;;;;0.13;0.10;;;9.80;99.90;;;;;;5033765;28;20017;-78
2022/02/10 18:08:27;;;;;;;0.15;0.15;;;9.70;99.90;;;;;;5033549;28;20060;-78
2022/02/10 18:13:36;;;;;;;0.38;0.38;;;9.60;99.90;;;;;;5033875;28;20051;-78
2022/02/10 18:16:06;;;;;;;0.88;0.52;;;9.60;99.90;;;;;;5014021;28;20392;-72
2022/02/10 18:18:38;;;;;;;0.40;0.40;;;9.50;99.90;;;;;;5013625;28;20026;-71
2022/02/10 18:21:38;;;;;;;1.23;0.22;;;9.50;99.90;;;;;;5013848;28;20061;-72
2022/02/10 18:26:56;;;;;;;0.00;0.00;;;9.50;99.90;;;;;;5014053;28;20061;-76
2022/02/10 18:38:22;;;;;;;12.75;1.00;;;9.70;99.90;;;;;;5024170;28;20243;-77
2022/02/10 19:07:51;;;;;;;1.10;0.73;;;9.90;99.90;;;;;;5033250;28;20040;-72
2022/02/10 19:10:20;;;;;;;0.10;0.10;;;9.90;99.90;;;;;;5034816;28;20053;-78
2022/02/10 19:12:49;;;;;;;0.60;0.60;;;9.90;99.90;;;;;;5030881;28;20439;-72
2022/02/10 19:15:22;;;;;;;0.98;0.70;;;9.80;99.90;;;;;;5031015;28;20100;-78
2022/02/10 19:17:49;;;;;;;0.15;0.15;;;9.80;99.90;;;;;;5032331;28;20128;-72
2022/02/10 19:20:16;;;;;;;0.30;0.30;;;9.90;99.90;;;;;;5032526;28;20033;-72
2022/02/10 19:22:43;;;;;;;0.77;0.40;;;9.90;99.90;;;;;;5032080;28;20026;-72
2022/02/10 19:25:10;;;;;;;0.75;0.65;;;9.80;99.90;;;;;;5032642;28;20033;-78
2022/02/10 19:27:37;;;;;;;0.68;0.65;;;9.90;99.90;;;;;;5032730;28;20104;-78
2022/02/10 19:30:07;;;;;;;0.68;0.68;;;9.80;99.90;;;;;;5064438;28;20021;-72
2022/02/10 19:32:34;;;;;;;5.90;0.90;;;9.90;99.90;;;;;;5032448;28;20572;-78
2022/02/10 19:35:00;;;;;;;0.52;0.52;;;9.80;99.90;;;;;;5032414;28;20044;-78
2022/02/10 19:37:28;;;;;;;0.77;0.17;;;9.90;99.90;;;;;;5032086;28;20030;-72
2022/02/10 19:39:59;;;;;;;0.20;0.20;;;9.90;99.90;;;;;;5031743;28;20040;-78
2022/02/10 19:42:29;;;;;;;0.03;0.03;;;9.80;99.90;;;;;;5031317;28;20037;-78
2022/02/10 19:44:59;;;;;;;0.30;0.30;;;9.80;99.90;;;;;;5031401;28;20022;-74
2022/02/10 19:47:29;;;;;;;0.43;0.43;;;9.80;99.90;;;;;;5031808;28;20029;-72
2022/02/10 19:49:56;;;;;;;0.00;0.00;;;9.80;99.90;;;;;;5031723;28;20026;-71
2022/02/10 19:52:23;;;;;;;1.25;0.20;;;9.80;99.90;;;;;;5030902;28;20484;-78
2022/02/10 19:54:51;;;;;;;0.20;0.20;;;9.80;99.90;;;;;;5032118;28;20048;-78
2022/02/10 19:57:19;;;;;;;0.13;0.13;;;9.80;99.90;;;;;;5032295;28;20178;-79
2022/02/10 19:59:45;;;;;;;1.02;1.00;;;9.80;99.90;;;;;;5032480;28;20017;-72
2022/02/10 20:02:12;;;;;;;0.20;0.20;;;9.80;99.90;;;;;;5033343;28;20046;-71
2022/02/10 20:04:37;;;;;;;0.30;0.30;;;9.70;99.90;;;;;;5036388;28;20071;-72
2022/02/10 20:07:03;;;;;;;0.85;0.70;;;9.70;99.90;;;;;;5034296;28;20506;-78
2022/02/10 20:09:29;;;;;;;0.15;0.15;;;9.60;99.90;;;;;;5035968;28;20070;-72
2022/02/10 20:11:55;;;;;;;0.40;0.40;;;9.60;99.90;;;;;;5036006;28;20040;-72
2022/02/10 20:14:23;;;;;;;0.17;0.17;;;9.50;99.90;;;;;;5034887;28;20030;-71
2022/02/10 20:16:53;;;;;;;1.05;0.65;;;9.40;99.90;;;;;;5017539;28;20144;-72
2022/02/10 20:19:19;;;;;;;0.95;0.30;;;9.40;99.90;;;;;;5016070;28;20052;-78
2022/02/10 20:21:45;;;;;;;0.32;0.32;;;9.40;99.90;;;;;;5016341;28;20030;-72
2022/02/10 20:24:11;;;;;;;1.38;0.85;;;9.40;99.90;;;;;;5015992;28;20405;-78
2022/02/10 20:26:37;;;;;;;7.32;1.95;;;9.40;99.90;;;;;;5016748;28;20388;-71
2022/02/10 20:29:03;;;;;;;0.00;0.00;;;9.40;99.90;;;;;;5016056;28;20489;-72
2022/02/10 20:31:30;;;;;;;1.88;1.13;;;9.40;99.90;;;;;;5015855;28;20084;-72
2022/02/10 20:33:57;;;;;;;1.67;0.68;;;9.40;99.90;;;;;;5015972;28;20040;-77
2022/02/10 20:36:22;;;;;;;0.30;0.30;;;9.40;99.90;;;;;;5019102;28;20057;-71
2022/02/10 20:38:54;;;;;;;0.20;0.20;;;9.40;99.90;;;;;;5034728;28;20075;-77
2022/02/10 20:41:20;;;;;;;0.82;0.82;;;9.40;99.90;;;;;;5035453;28;20463;-71
2022/02/10 20:43:49;;;;;;;1.05;0.95;;;9.30;99.90;;;;;;5035695;28;20070;-72
2022/02/10 20:46:17;;;;;;;0.10;0.10;;;9.30;99.90;;;;;;5035528;28;20026;-77
2022/02/10 20:48:44;;;;;;;0.13;0.13;;;9.30;99.90;;;;;;5034343;28;20022;-78
2022/02/10 20:51:12;;;;;;;1.02;1.00;;;9.20;99.90;;;;;;5035346;28;20060;-71
2022/02/10 20:53:41;;;;;;;0.77;0.77;;;9.20;99.90;;;;;;5034331;28;20025;-72
2022/02/10 20:56:09;;;;;;;0.10;0.10;;;9.10;99.90;;;;;;5035483;28;20025;-71
2022/02/10 20:58:35;;;;;;;9.43;0.90;;;9.10;99.90;;;;;;5034945;28;20025;-78
2022/02/10 21:01:03;;;;;;;0.25;0.25;;;9.10;99.90;;;;;;5034118;28;20037;-77
2022/02/10 21:03:32;;;;;;;6.07;1.90;;;9.00;99.90;;;;;;5035111;28;20064;-78
2022/02/10 21:08:39;;;;;;;0.65;0.65;;;8.90;99.90;;;;;;5034985;28;20477;-77
2022/02/10 21:11:05;;;;;;;0.10;0.10;;;8.90;99.90;;;;;;5034549;28;20025;-78
2022/02/10 21:13:32;;;;;;;0.13;0.05;;;8.90;99.90;;;;;;5034636;28;20226;-78
2022/02/10 21:15:58;;;;;;;0.17;0.17;;;8.80;99.90;;;;;;5023774;28;20033;-78
2022/02/10 21:18:25;;;;;;;0.98;0.65;;;8.90;99.90;;;;;;5046722;28;20032;-71
2022/02/10 21:20:57;;;;;;;0.03;0.03;;;8.80;99.90;;;;;;5030379;28;20033;-71
2022/02/10 21:23:28;;;;;;;0.40;0.35;;;8.70;99.90;;;;;;5015146;28;20097;-78
2022/02/10 21:25:56;;;;;;;0.17;0.17;;;8.70;99.90;;;;;;5014985;28;20362;-71
2022/02/10 21:28:32;;;;;;;0.82;0.82;;;8.70;99.90;;;;;;5026285;28;20026;-71
2022/02/10 21:31:01;;;;;;;0.30;0.30;;;8.60;99.90;;;;;;5014635;28;20029;-72
2022/02/10 21:38:42;;;;;;;0.32;0.32;;;8.60;99.90;;;;;;5014723;28;20032;-78
2022/02/10 22:10:29;;;;;;;0.55;0.55;;;8.10;99.90;;;;;;5033381;28;20167;-77
2022/02/10 22:18:37;;;;;;;1.25;1.00;;;8.00;99.90;;;;;;5033577;28;20083;-77
2022/02/10 22:21:06;;;;;;;0.00;0.00;;;8.00;99.90;;;;;;5041384;28;20504;-71
2022/02/10 22:23:35;;;;;;;0.57;0.57;;;8.00;99.90;;;;;;5033690;28;20051;-77
2022/02/10 22:26:04;;;;;;;0.10;0.10;;;8.00;99.90;;;;;;5032540;28;20036;-78
2022/02/10 22:29:12;;;;;;;0.08;0.08;;;8.00;99.90;;;;;;5032376;28;20108;-71
2022/02/10 22:31:36;;;;;;;0.00;0.00;;;8.00;99.90;;;;;;5033312;28;20112;-71
2022/02/10 22:34:12;;;;;;;0.28;0.28;;;8.00;99.90;;;;;;5033031;28;20117;-71
2022/02/10 22:36:42;;;;;;;0.05;0.05;;;7.90;99.90;;;;;;5033204;28;20056;-72
2022/02/10 22:39:09;;;;;;;0.55;0.55;;;7.90;99.90;;;;;;5032962;28;20569;-71
2022/02/10 22:41:35;;;;;;;0.00;0.00;;;7.90;99.90;;;;;;5031410;28;20049;-79
2022/02/10 22:44:03;;;;;;;0.00;0.00;;;7.80;99.90;;;;;;5033291;28;20384;-78
2022/02/10 22:46:30;;;;;;;0.75;0.55;;;7.80;99.90;;;;;;5032058;28;20116;-79
2022/02/10 22:48:55;;;;;;;0.00;0.00;;;7.80;99.90;;;;;;5031786;28;20057;-71
2022/02/10 22:51:23;;;;;;;0.03;0.03;;;7.80;99.90;;;;;;5033161;28;20037;-71
2022/02/10 22:53:49;;;;;;;0.35;0.35;;;7.80;99.90;;;;;;5026638;28;20083;-71
2022/02/10 22:56:18;;;;;;;0.57;0.57;;;7.80;99.90;;;;;;5012860;28;20026;-79
2022/02/10 22:58:44;;;;;;;0.30;0.30;;;7.80;99.90;;;;;;5012512;28;20104;-79
2022/02/10 23:01:12;;;;;;;0.45;0.35;;;7.80;99.90;;;;;;5012935;28;20497;-78
2022/02/10 23:03:38;;;;;;;2.10;0.82;;;7.80;99.90;;;;;;5028460;28;20061;-72
2022/02/10 23:06:07;;;;;;;0.30;0.30;;;7.80;99.90;;;;;;5013277;28;20022;-72
2022/02/10 23:08:33;;;;;;;1.27;1.17;;;7.80;99.90;;;;;;5012692;28;20042;-78
2022/02/10 23:10:59;;;;;;;0.00;0.00;;;7.70;99.90;;;;;;5012521;28;20033;-72
2022/02/10 23:13:29;;;;;;;0.52;0.35;;;7.80;99.90;;;;;;5013176;28;20037;-71
2022/02/10 23:15:57;;;;;;;0.10;0.10;;;7.70;99.90;;;;;;5013002;28;20041;-79
2022/02/10 23:18:25;;;;;;;0.80;0.80;;;7.80;99.90;;;;;;5012721;28;20029;-71
2022/02/10 23:20:52;;;;;;;0.52;0.52;;;7.60;99.90;;;;;;5012945;28;20061;-78
2022/02/10 23:23:20;;;;;;;0.35;0.35;;;7.70;99.90;;;;;;5011238;28;20471;-79
2022/02/10 23:25:47;;;;;;;0.00;0.00;;;7.70;99.90;;;;;;5013126;28;20385;-72
2022/02/10 23:28:19;;;;;;;0.00;0.00;;;7.70;99.90;;;;;;5012950;28;20018;-72
2022/02/10 23:30:46;;;;;;;0.55;0.47;;;7.70;99.90;;;;;;5012888;28;20393;-72
2022/02/10 23:33:24;;;;;;;0.00;0.00;;;7.70;99.90;;;;;;5012768;28;20396;-78
2022/02/10 23:38:21;;;;;;;0.10;0.10;;;7.60;99.90;;;;;;5031874;28;20091;-71
2022/02/10 23:43:43;;;;;;;0.17;0.10;;;7.60;99.90;;;;;;5030060;28;20057;-71
2022/02/10 23:46:09;;;;;;;0.40;0.40;;;7.60;99.90;;;;;;5031005;28;20033;-71
2022/02/10 23:48:35;;;;;;;0.00;0.00;;;7.60;99.90;;;;;;5032377;28;20021;-78
2022/02/10 23:51:01;;;;;;;0.00;0.00;;;7.60;99.90;;;;;;5031071;28;20048;-73
2022/02/10 23:53:28;;;;;;;0.00;0.00;;;7.60;99.90;;;;;;5027660;28;20018;-79
2022/02/10 23:55:55;;;;;;;0.40;0.40;;;7.60;99.90;;;;;;5012652;28;20032;-72
